Archival Weather

General Ignacio P Garcia Intl

General Ignacio P Garcia Intl, Mexico (MMHO)

Report from: Tuesday, September 19, 2023 8:40 AM CST
Current time: Tuesday, July 16, 2024 10:04 AM CST

Current weather – Weather history – Daily summaries
Weather forecast

Temperature29.0°C (84.2°F)
Heat index32.9°C (91.2°F)
Dew point23.0°C (73.4°F)
Winds 6 kts (3.1 m/s, 6.9 mph) East (80°)
Visibility10 mi. (16.1 km)
Clouds Sky clear
Altimeter29.90 in.Hg (1013 mB)
Relative humidity70 %
Density altitude2,037 ft. (621 m)
Sea-level pressure101.2 kPa (1012 mB, 29.88 in.Hg)
Remarks Pressure rising
Flight conditions Visual Meteorological Conditions
Raw dataMMHO 191440Z 08006KT 10SM SKC 29/23 A2990 RMK SLP117 52007 961 HZY
An error has occurred. This application may no longer respond until reloaded. Reload 🗙